sensor_id;sensor_type;location;lat;lon;timestamp;P1;durP1;ratioP1;P2;durP2;ratioP2
10260;SDS011;5175;42.606;23.388;2023-04-25T00:02:07;6.63;;;6.03;;
10260;SDS011;5175;42.606;23.388;2023-04-25T00:04:36;5.77;;;5.27;;
10260;SDS011;5175;42.606;23.388;2023-04-25T00:07:03;5.50;;;4.87;;
10260;SDS011;5175;42.606;23.388;2023-04-25T00:09:30;5.50;;;5.00;;
10260;SDS011;5175;42.606;23.388;2023-04-25T00:11:58;5.33;;;4.83;;
10260;SDS011;5175;42.606;23.388;2023-04-25T00:14:26;6.07;;;5.47;;
10260;SDS011;5175;42.606;23.388;2023-04-25T00:16:53;5.83;;;5.20;;
10260;SDS011;5175;42.606;23.388;2023-04-25T00:19:21;6.33;;;5.73;;
10260;SDS011;5175;42.606;23.388;2023-04-25T00:21:49;6.60;;;5.90;;
10260;SDS011;5175;42.606;23.388;2023-04-25T00:24:16;7.93;;;6.63;;
10260;SDS011;5175;42.606;23.388;2023-04-25T00:26:43;9.50;;;8.60;;
10260;SDS011;5175;42.606;23.388;2023-04-25T00:29:10;10.77;;;9.77;;
10260;SDS011;5175;42.606;23.388;2023-04-25T00:31:37;11.13;;;10.03;;
10260;SDS011;5175;42.606;23.388;2023-04-25T00:34:04;11.00;;;9.67;;
10260;SDS011;5175;42.606;23.388;2023-04-25T00:36:30;11.57;;;10.47;;
10260;SDS011;5175;42.606;23.388;2023-04-25T00:38:59;12.30;;;11.00;;
10260;SDS011;5175;42.606;23.388;2023-04-25T00:41:26;11.50;;;10.40;;
10260;SDS011;5175;42.606;23.388;2023-04-25T00:43:53;11.03;;;10.03;;
10260;SDS011;5175;42.606;23.388;2023-04-25T00:46:21;10.87;;;9.97;;
10260;SDS011;5175;42.606;23.388;2023-04-25T00:48:48;11.07;;;10.03;;
10260;SDS011;5175;42.606;23.388;2023-04-25T00:51:15;11.37;;;10.33;;
10260;SDS011;5175;42.606;23.388;2023-04-25T00:53:45;9.93;;;8.93;;
10260;SDS011;5175;42.606;23.388;2023-04-25T00:56:15;9.07;;;8.27;;
10260;SDS011;5175;42.606;23.388;2023-04-25T00:58:42;8.67;;;7.97;;
10260;SDS011;5175;42.606;23.388;2023-04-25T01:01:09;8.57;;;7.77;;
10260;SDS011;5175;42.606;23.388;2023-04-25T01:03:39;8.07;;;7.27;;
10260;SDS011;5175;42.606;23.388;2023-04-25T01:06:07;8.23;;;7.47;;
10260;SDS011;5175;42.606;23.388;2023-04-25T01:08:35;7.93;;;7.23;;
10260;SDS011;5175;42.606;23.388;2023-04-25T01:11:04;8.40;;;7.60;;
10260;SDS011;5175;42.606;23.388;2023-04-25T01:13:32;7.50;;;6.90;;
10260;SDS011;5175;42.606;23.388;2023-04-25T01:15:59;7.17;;;6.47;;
10260;SDS011;5175;42.606;23.388;2023-04-25T01:18:27;7.87;;;7.17;;
10260;SDS011;5175;42.606;23.388;2023-04-25T01:20:54;8.40;;;7.70;;
10260;SDS011;5175;42.606;23.388;2023-04-25T01:23:23;7.47;;;6.73;;
10260;SDS011;5175;42.606;23.388;2023-04-25T01:25:50;9.93;;;8.53;;
10260;SDS011;5175;42.606;23.388;2023-04-25T01:28:17;9.13;;;8.33;;
10260;SDS011;5175;42.606;23.388;2023-04-25T01:30:44;9.13;;;8.23;;
10260;SDS011;5175;42.606;23.388;2023-04-25T01:33:12;9.03;;;8.23;;
10260;SDS011;5175;42.606;23.388;2023-04-25T01:35:41;9.00;;;8.20;;
10260;SDS011;5175;42.606;23.388;2023-04-25T01:38:08;8.27;;;7.50;;
10260;SDS011;5175;42.606;23.388;2023-04-25T01:40:38;8.63;;;7.83;;
10260;SDS011;5175;42.606;23.388;2023-04-25T01:43:07;8.17;;;7.37;;
10260;SDS011;5175;42.606;23.388;2023-04-25T01:45:36;8.67;;;7.70;;
10260;SDS011;5175;42.606;23.388;2023-04-25T01:48:05;8.93;;;8.13;;
10260;SDS011;5175;42.606;23.388;2023-04-25T01:50:32;10.27;;;8.77;;
10260;SDS011;5175;42.606;23.388;2023-04-25T01:52:59;9.73;;;8.30;;
10260;SDS011;5175;42.606;23.388;2023-04-25T01:55:27;10.33;;;9.40;;
10260;SDS011;5175;42.606;23.388;2023-04-25T01:57:56;11.97;;;10.10;;
10260;SDS011;5175;42.606;23.388;2023-04-25T02:00:23;13.40;;;12.00;;
10260;SDS011;5175;42.606;23.388;2023-04-25T02:02:50;12.00;;;10.80;;
10260;SDS011;5175;42.606;23.388;2023-04-25T02:05:18;9.43;;;8.50;;
10260;SDS011;5175;42.606;23.388;2023-04-25T02:07:46;9.60;;;8.80;;
10260;SDS011;5175;42.606;23.388;2023-04-25T02:10:13;11.17;;;9.43;;
10260;SDS011;5175;42.606;23.388;2023-04-25T02:12:40;12.80;;;11.50;;
10260;SDS011;5175;42.606;23.388;2023-04-25T02:15:09;12.70;;;11.40;;
10260;SDS011;5175;42.606;23.388;2023-04-25T02:17:36;13.40;;;12.10;;
10260;SDS011;5175;42.606;23.388;2023-04-25T02:20:05;12.13;;;10.93;;
10260;SDS011;5175;42.606;23.388;2023-04-25T02:22:32;11.53;;;10.43;;
10260;SDS011;5175;42.606;23.388;2023-04-25T02:25:00;10.43;;;9.43;;
10260;SDS011;5175;42.606;23.388;2023-04-25T02:27:29;9.97;;;8.97;;
10260;SDS011;5175;42.606;23.388;2023-04-25T02:29:56;11.60;;;9.87;;
10260;SDS011;5175;42.606;23.388;2023-04-25T02:32:25;11.30;;;10.00;;
10260;SDS011;5175;42.606;23.388;2023-04-25T02:34:51;10.47;;;9.37;;
10260;SDS011;5175;42.606;23.388;2023-04-25T02:37:18;9.37;;;8.47;;
10260;SDS011;5175;42.606;23.388;2023-04-25T02:39:45;9.17;;;8.30;;
10260;SDS011;5175;42.606;23.388;2023-04-25T02:42:12;9.73;;;8.73;;
10260;SDS011;5175;42.606;23.388;2023-04-25T02:44:39;9.90;;;8.90;;
10260;SDS011;5175;42.606;23.388;2023-04-25T02:47:06;9.73;;;8.83;;
10260;SDS011;5175;42.606;23.388;2023-04-25T02:49:34;10.57;;;9.57;;
10260;SDS011;5175;42.606;23.388;2023-04-25T02:52:01;11.60;;;10.50;;
10260;SDS011;5175;42.606;23.388;2023-04-25T02:54:28;14.00;;;12.60;;
10260;SDS011;5175;42.606;23.388;2023-04-25T02:56:56;14.17;;;12.77;;
10260;SDS011;5175;42.606;23.388;2023-04-25T02:59:23;14.47;;;13.07;;
10260;SDS011;5175;42.606;23.388;2023-04-25T03:01:50;14.03;;;12.63;;
10260;SDS011;5175;42.606;23.388;2023-04-25T03:04:17;14.00;;;12.63;;
10260;SDS011;5175;42.606;23.388;2023-04-25T03:06:45;14.53;;;13.10;;
10260;SDS011;5175;42.606;23.388;2023-04-25T03:09:12;15.60;;;14.03;;
10260;SDS011;5175;42.606;23.388;2023-04-25T03:11:39;15.63;;;14.03;;
10260;SDS011;5175;42.606;23.388;2023-04-25T03:14:06;15.23;;;13.73;;
10260;SDS011;5175;42.606;23.388;2023-04-25T03:16:33;16.37;;;14.63;;
10260;SDS011;5175;42.606;23.388;2023-04-25T03:19:00;14.90;;;13.23;;
10260;SDS011;5175;42.606;23.388;2023-04-25T03:21:27;15.27;;;13.73;;
10260;SDS011;5175;42.606;23.388;2023-04-25T03:23:55;15.63;;;14.00;;
10260;SDS011;5175;42.606;23.388;2023-04-25T03:26:22;15.27;;;13.67;;
10260;SDS011;5175;42.606;23.388;2023-04-25T03:28:49;14.60;;;13.10;;
10260;SDS011;5175;42.606;23.388;2023-04-25T03:31:16;13.17;;;11.87;;
10260;SDS011;5175;42.606;23.388;2023-04-25T03:33:43;14.27;;;12.87;;
10260;SDS011;5175;42.606;23.388;2023-04-25T03:36:10;14.20;;;12.80;;
10260;SDS011;5175;42.606;23.388;2023-04-25T03:38:37;15.37;;;13.90;;
10260;SDS011;5175;42.606;23.388;2023-04-25T03:41:05;15.73;;;13.87;;
10260;SDS011;5175;42.606;23.388;2023-04-25T03:43:32;14.60;;;11.53;;
10260;SDS011;5175;42.606;23.388;2023-04-25T03:45:59;11.43;;;10.33;;
10260;SDS011;5175;42.606;23.388;2023-04-25T03:48:26;11.57;;;10.47;;
10260;SDS011;5175;42.606;23.388;2023-04-25T03:50:53;13.43;;;12.13;;
10260;SDS011;5175;42.606;23.388;2023-04-25T03:53:21;13.73;;;12.17;;
10260;SDS011;5175;42.606;23.388;2023-04-25T03:55:48;12.87;;;11.63;;
10260;SDS011;5175;42.606;23.388;2023-04-25T03:58:16;11.80;;;10.70;;
10260;SDS011;5175;42.606;23.388;2023-04-25T04:00:43;10.93;;;9.80;;
10260;SDS011;5175;42.606;23.388;2023-04-25T04:03:10;10.87;;;9.87;;
10260;SDS011;5175;42.606;23.388;2023-04-25T04:05:37;10.77;;;9.87;;
10260;SDS011;5175;42.606;23.388;2023-04-25T04:08:05;10.80;;;9.80;;
10260;SDS011;5175;42.606;23.388;2023-04-25T04:10:32;10.17;;;9.20;;
10260;SDS011;5175;42.606;23.388;2023-04-25T04:12:59;9.77;;;8.97;;
10260;SDS011;5175;42.606;23.388;2023-04-25T04:15:28;9.50;;;8.60;;
10260;SDS011;5175;42.606;23.388;2023-04-25T04:17:58;10.30;;;9.40;;
10260;SDS011;5175;42.606;23.388;2023-04-25T04:20:28;11.13;;;9.80;;
10260;SDS011;5175;42.606;23.388;2023-04-25T04:22:55;10.13;;;9.13;;
10260;SDS011;5175;42.606;23.388;2023-04-25T04:25:22;14.07;;;12.57;;
10260;SDS011;5175;42.606;23.388;2023-04-25T04:27:49;14.40;;;12.90;;
10260;SDS011;5175;42.606;23.388;2023-04-25T04:30:19;14.73;;;13.23;;
10260;SDS011;5175;42.606;23.388;2023-04-25T04:32:50;17.40;;;15.63;;
10260;SDS011;5175;42.606;23.388;2023-04-25T04:35:17;14.83;;;13.37;;
10260;SDS011;5175;42.606;23.388;2023-04-25T04:37:44;15.07;;;13.57;;
10260;SDS011;5175;42.606;23.388;2023-04-25T04:40:11;15.97;;;14.37;;
10260;SDS011;5175;42.606;23.388;2023-04-25T04:42:40;17.33;;;15.63;;
10260;SDS011;5175;42.606;23.388;2023-04-25T04:45:07;17.53;;;15.73;;
10260;SDS011;5175;42.606;23.388;2023-04-25T04:47:36;19.50;;;17.60;;
10260;SDS011;5175;42.606;23.388;2023-04-25T04:50:06;19.60;;;17.70;;
10260;SDS011;5175;42.606;23.388;2023-04-25T04:52:34;21.37;;;19.30;;
10260;SDS011;5175;42.606;23.388;2023-04-25T04:55:01;21.30;;;19.23;;
10260;SDS011;5175;42.606;23.388;2023-04-25T04:57:29;20.30;;;18.17;;
10260;SDS011;5175;42.606;23.388;2023-04-25T04:59:56;19.50;;;17.63;;
10260;SDS011;5175;42.606;23.388;2023-04-25T05:02:23;20.33;;;18.33;;
10260;SDS011;5175;42.606;23.388;2023-04-25T05:04:50;19.53;;;17.53;;
10260;SDS011;5175;42.606;23.388;2023-04-25T05:07:18;17.87;;;16.13;;
10260;SDS011;5175;42.606;23.388;2023-04-25T05:09:45;18.60;;;16.83;;
10260;SDS011;5175;42.606;23.388;2023-04-25T05:12:12;17.93;;;16.23;;
10260;SDS011;5175;42.606;23.388;2023-04-25T05:14:39;20.43;;;18.23;;
10260;SDS011;5175;42.606;23.388;2023-04-25T05:17:06;21.10;;;18.83;;
10260;SDS011;5175;42.606;23.388;2023-04-25T05:19:33;22.20;;;19.90;;
10260;SDS011;5175;42.606;23.388;2023-04-25T05:22:00;21.90;;;19.67;;
10260;SDS011;5175;42.606;23.388;2023-04-25T05:24:29;17.60;;;15.73;;
10260;SDS011;5175;42.606;23.388;2023-04-25T05:26:56;16.60;;;14.90;;
10260;SDS011;5175;42.606;23.388;2023-04-25T05:29:23;17.80;;;15.90;;
10260;SDS011;5175;42.606;23.388;2023-04-25T05:31:50;16.20;;;14.50;;
10260;SDS011;5175;42.606;23.388;2023-04-25T05:34:18;18.27;;;16.47;;
10260;SDS011;5175;42.606;23.388;2023-04-25T05:36:45;17.43;;;15.73;;
10260;SDS011;5175;42.606;23.388;2023-04-25T05:39:13;17.33;;;15.53;;
10260;SDS011;5175;42.606;23.388;2023-04-25T05:41:41;17.03;;;15.43;;
10260;SDS011;5175;42.606;23.388;2023-04-25T05:44:08;15.77;;;14.17;;
10260;SDS011;5175;42.606;23.388;2023-04-25T05:46:36;15.30;;;13.80;;
10260;SDS011;5175;42.606;23.388;2023-04-25T05:49:03;15.53;;;13.50;;
10260;SDS011;5175;42.606;23.388;2023-04-25T05:51:29;15.40;;;13.80;;
10260;SDS011;5175;42.606;23.388;2023-04-25T05:53:56;15.87;;;14.27;;
10260;SDS011;5175;42.606;23.388;2023-04-25T05:56:23;15.63;;;13.90;;
10260;SDS011;5175;42.606;23.388;2023-04-25T05:58:52;14.73;;;13.23;;
10260;SDS011;5175;42.606;23.388;2023-04-25T06:01:19;15.17;;;13.67;;
10260;SDS011;5175;42.606;23.388;2023-04-25T06:03:46;13.47;;;12.17;;
10260;SDS011;5175;42.606;23.388;2023-04-25T06:06:13;17.13;;;14.97;;
10260;SDS011;5175;42.606;23.388;2023-04-25T06:08:40;18.63;;;16.83;;
10260;SDS011;5175;42.606;23.388;2023-04-25T06:11:07;19.77;;;17.70;;
10260;SDS011;5175;42.606;23.388;2023-04-25T06:13:34;18.07;;;16.27;;
10260;SDS011;5175;42.606;23.388;2023-04-25T06:16:02;19.13;;;17.17;;
10260;SDS011;5175;42.606;23.388;2023-04-25T06:18:30;20.03;;;17.40;;
10260;SDS011;5175;42.606;23.388;2023-04-25T06:20:56;19.13;;;17.20;;
10260;SDS011;5175;42.606;23.388;2023-04-25T06:23:23;18.80;;;16.57;;
10260;SDS011;5175;42.606;23.388;2023-04-25T06:25:50;18.57;;;16.67;;
10260;SDS011;5175;42.606;23.388;2023-04-25T06:28:17;18.63;;;16.73;;
10260;SDS011;5175;42.606;23.388;2023-04-25T06:30:47;19.60;;;17.73;;
10260;SDS011;5175;42.606;23.388;2023-04-25T06:33:15;21.80;;;18.20;;
10260;SDS011;5175;42.606;23.388;2023-04-25T06:35:42;20.93;;;18.53;;
10260;SDS011;5175;42.606;23.388;2023-04-25T06:38:09;19.93;;;17.97;;
10260;SDS011;5175;42.606;23.388;2023-04-25T06:40:36;20.43;;;18.43;;
10260;SDS011;5175;42.606;23.388;2023-04-25T06:43:03;20.70;;;18.60;;
10260;SDS011;5175;42.606;23.388;2023-04-25T06:45:30;18.40;;;16.43;;
10260;SDS011;5175;42.606;23.388;2023-04-25T06:47:56;18.33;;;16.37;;
10260;SDS011;5175;42.606;23.388;2023-04-25T06:50:25;20.50;;;17.10;;
10260;SDS011;5175;42.606;23.388;2023-04-25T06:52:52;18.37;;;16.57;;
10260;SDS011;5175;42.606;23.388;2023-04-25T06:55:19;19.57;;;17.67;;
10260;SDS011;5175;42.606;23.388;2023-04-25T06:57:46;19.53;;;17.63;;
10260;SDS011;5175;42.606;23.388;2023-04-25T07:00:13;17.90;;;16.30;;
10260;SDS011;5175;42.606;23.388;2023-04-25T07:02:40;18.70;;;16.80;;
10260;SDS011;5175;42.606;23.388;2023-04-25T07:05:08;16.63;;;15.13;;
10260;SDS011;5175;42.606;23.388;2023-04-25T07:07:37;15.77;;;14.27;;
10260;SDS011;5175;42.606;23.388;2023-04-25T07:10:04;15.97;;;14.47;;
10260;SDS011;5175;42.606;23.388;2023-04-25T07:12:31;15.60;;;13.97;;
10260;SDS011;5175;42.606;23.388;2023-04-25T07:14:58;14.80;;;13.40;;
10260;SDS011;5175;42.606;23.388;2023-04-25T07:17:30;15.13;;;13.57;;
10260;SDS011;5175;42.606;23.388;2023-04-25T07:19:58;16.03;;;12.33;;
10260;SDS011;5175;42.606;23.388;2023-04-25T07:22:25;15.00;;;12.80;;
10260;SDS011;5175;42.606;23.388;2023-04-25T07:24:53;18.07;;;13.20;;
10260;SDS011;5175;42.606;23.388;2023-04-25T07:27:20;14.90;;;13.53;;
10260;SDS011;5175;42.606;23.388;2023-04-25T07:29:47;14.17;;;12.87;;
10260;SDS011;5175;42.606;23.388;2023-04-25T07:32:14;13.53;;;12.20;;
10260;SDS011;5175;42.606;23.388;2023-04-25T07:34:41;13.53;;;12.10;;
10260;SDS011;5175;42.606;23.388;2023-04-25T07:37:08;12.63;;;11.53;;
10260;SDS011;5175;42.606;23.388;2023-04-25T07:39:35;15.27;;;12.73;;
10260;SDS011;5175;42.606;23.388;2023-04-25T07:42:04;13.47;;;12.13;;
10260;SDS011;5175;42.606;23.388;2023-04-25T07:44:33;11.83;;;10.73;;
10260;SDS011;5175;42.606;23.388;2023-04-25T07:47:03;12.00;;;10.90;;
10260;SDS011;5175;42.606;23.388;2023-04-25T07:49:32;12.07;;;10.67;;
10260;SDS011;5175;42.606;23.388;2023-04-25T07:51:59;11.20;;;10.10;;
10260;SDS011;5175;42.606;23.388;2023-04-25T07:54:26;10.73;;;9.83;;
10260;SDS011;5175;42.606;23.388;2023-04-25T07:56:53;10.10;;;9.30;;
10260;SDS011;5175;42.606;23.388;2023-04-25T07:59:21;10.33;;;9.37;;
10260;SDS011;5175;42.606;23.388;2023-04-25T08:01:48;8.73;;;7.93;;
10260;SDS011;5175;42.606;23.388;2023-04-25T08:04:15;8.17;;;7.47;;
10260;SDS011;5175;42.606;23.388;2023-04-25T08:06:42;9.40;;;8.60;;
10260;SDS011;5175;42.606;23.388;2023-04-25T08:09:10;8.57;;;7.67;;
10260;SDS011;5175;42.606;23.388;2023-04-25T08:11:37;8.33;;;7.63;;
10260;SDS011;5175;42.606;23.388;2023-04-25T08:14:04;8.87;;;7.53;;
10260;SDS011;5175;42.606;23.388;2023-04-25T08:16:33;8.88;;;7.80;;
10260;SDS011;5175;42.606;23.388;2023-04-25T08:19:00;6.97;;;6.37;;
10260;SDS011;5175;42.606;23.388;2023-04-25T08:21:27;7.47;;;6.78;;
10260;SDS011;5175;42.606;23.388;2023-04-25T08:23:53;7.72;;;7.00;;
10260;SDS011;5175;42.606;23.388;2023-04-25T08:26:20;7.87;;;7.17;;
10260;SDS011;5175;42.606;23.388;2023-04-25T08:28:47;7.18;;;6.50;;
10260;SDS011;5175;42.606;23.388;2023-04-25T08:31:14;7.60;;;6.83;;
10260;SDS011;5175;42.606;23.388;2023-04-25T08:33:42;7.17;;;6.20;;
10260;SDS011;5175;42.606;23.388;2023-04-25T08:36:10;6.60;;;6.00;;
10260;SDS011;5175;42.606;23.388;2023-04-25T08:38:37;6.40;;;5.80;;
10260;SDS011;5175;42.606;23.388;2023-04-25T08:41:04;6.30;;;5.68;;
10260;SDS011;5175;42.606;23.388;2023-04-25T08:43:32;5.85;;;5.30;;
10260;SDS011;5175;42.606;23.388;2023-04-25T08:46:01;5.53;;;5.00;;
10260;SDS011;5175;42.606;23.388;2023-04-25T08:48:28;4.07;;;3.53;;
10260;SDS011;5175;42.606;23.388;2023-04-25T08:51:01;3.65;;;3.35;;
10260;SDS011;5175;42.606;23.388;2023-04-25T08:53:29;3.53;;;3.22;;
10260;SDS011;5175;42.606;23.388;2023-04-25T08:55:58;3.05;;;2.75;;
10260;SDS011;5175;42.606;23.388;2023-04-25T08:58:26;4.88;;;3.92;;
10260;SDS011;5175;42.606;23.388;2023-04-25T09:00:54;4.78;;;3.80;;
10260;SDS011;5175;42.606;23.388;2023-04-25T09:03:21;4.38;;;3.17;;
10260;SDS011;5175;42.606;23.388;2023-04-25T09:05:48;3.30;;;3.00;;
10260;SDS011;5175;42.606;23.388;2023-04-25T09:08:16;4.57;;;3.38;;
10260;SDS011;5175;42.606;23.388;2023-04-25T09:10:43;4.47;;;3.67;;
10260;SDS011;5175;42.606;23.388;2023-04-25T09:13:11;5.35;;;3.72;;
10260;SDS011;5175;42.606;23.388;2023-04-25T09:15:46;6.53;;;4.20;;
10260;SDS011;5175;42.606;23.388;2023-04-25T09:18:21;5.65;;;3.88;;
10260;SDS011;5175;42.606;23.388;2023-04-25T09:20:50;5.28;;;4.10;;
10260;SDS011;5175;42.606;23.388;2023-04-25T09:23:19;5.25;;;4.22;;
10260;SDS011;5175;42.606;23.388;2023-04-25T09:25:47;6.20;;;4.50;;
10260;SDS011;5175;42.606;23.388;2023-04-25T09:28:14;6.40;;;5.55;;
10260;SDS011;5175;42.606;23.388;2023-04-25T09:30:41;5.15;;;4.75;;
10260;SDS011;5175;42.606;23.388;2023-04-25T09:33:08;7.30;;;4.90;;
10260;SDS011;5175;42.606;23.388;2023-04-25T09:35:37;6.00;;;4.97;;
10260;SDS011;5175;42.606;23.388;2023-04-25T09:38:08;5.50;;;4.85;;
10260;SDS011;5175;42.606;23.388;2023-04-25T09:40:42;5.40;;;4.80;;
10260;SDS011;5175;42.606;23.388;2023-04-25T09:43:10;6.93;;;4.50;;
10260;SDS011;5175;42.606;23.388;2023-04-25T09:45:40;5.70;;;3.97;;
10260;SDS011;5175;42.606;23.388;2023-04-25T09:48:11;3.95;;;3.42;;
10260;SDS011;5175;42.606;23.388;2023-04-25T09:50:39;4.35;;;3.88;;
10260;SDS011;5175;42.606;23.388;2023-04-25T09:53:06;5.07;;;4.25;;
10260;SDS011;5175;42.606;23.388;2023-04-25T09:55:33;5.38;;;4.30;;
10260;SDS011;5175;42.606;23.388;2023-04-25T09:58:03;5.45;;;4.90;;
10260;SDS011;5175;42.606;23.388;2023-04-25T10:00:32;5.72;;;4.97;;
10260;SDS011;5175;42.606;23.388;2023-04-25T10:03:00;5.25;;;4.72;;
10260;SDS011;5175;42.606;23.388;2023-04-25T10:05:30;6.10;;;5.10;;
10260;SDS011;5175;42.606;23.388;2023-04-25T10:07:58;5.33;;;4.20;;
10260;SDS011;5175;42.606;23.388;2023-04-25T10:10:28;5.17;;;4.67;;
10260;SDS011;5175;42.606;23.388;2023-04-25T10:13:01;5.83;;;4.30;;
10260;SDS011;5175;42.606;23.388;2023-04-25T10:15:32;5.80;;;4.07;;
10260;SDS011;5175;42.606;23.388;2023-04-25T10:18:01;4.23;;;3.73;;
10260;SDS011;5175;42.606;23.388;2023-04-25T10:20:29;3.58;;;3.28;;
10260;SDS011;5175;42.606;23.388;2023-04-25T10:22:58;5.37;;;3.57;;
10260;SDS011;5175;42.606;23.388;2023-04-25T10:25:31;3.80;;;2.83;;
10260;SDS011;5175;42.606;23.388;2023-04-25T10:27:59;4.27;;;2.60;;
10260;SDS011;5175;42.606;23.388;2023-04-25T10:30:28;3.73;;;3.37;;
10260;SDS011;5175;42.606;23.388;2023-04-25T10:32:55;5.67;;;3.57;;
10260;SDS011;5175;42.606;23.388;2023-04-25T10:35:24;4.38;;;3.40;;
10260;SDS011;5175;42.606;23.388;2023-04-25T10:38:03;4.40;;;4.00;;
10260;SDS011;5175;42.606;23.388;2023-04-25T10:40:31;2.83;;;1.83;;
10260;SDS011;5175;42.606;23.388;2023-04-25T10:46:00;1.67;;;1.45;;
10260;SDS011;5175;42.606;23.388;2023-04-25T10:48:27;1.58;;;1.30;;
10260;SDS011;5175;42.606;23.388;2023-04-25T10:51:06;2.92;;;1.90;;
10260;SDS011;5175;42.606;23.388;2023-04-25T10:53:34;2.05;;;1.30;;
10260;SDS011;5175;42.606;23.388;2023-04-25T10:56:08;1.80;;;1.30;;
10260;SDS011;5175;42.606;23.388;2023-04-25T10:58:39;0.90;;;0.90;;
10260;SDS011;5175;42.606;23.388;2023-04-25T11:01:09;1.77;;;1.00;;
10260;SDS011;5175;42.606;23.388;2023-04-25T11:03:42;5.23;;;2.40;;
10260;SDS011;5175;42.606;23.388;2023-04-25T11:06:15;3.93;;;2.97;;
10260;SDS011;5175;42.606;23.388;2023-04-25T11:08:49;3.40;;;2.80;;
10260;SDS011;5175;42.606;23.388;2023-04-25T11:11:17;1.70;;;1.50;;
10260;SDS011;5175;42.606;23.388;2023-04-25T11:13:47;1.33;;;1.00;;
10260;SDS011;5175;42.606;23.388;2023-04-25T11:16:17;1.30;;;1.00;;
10260;SDS011;5175;42.606;23.388;2023-04-25T11:18:44;1.33;;;1.23;;
10260;SDS011;5175;42.606;23.388;2023-04-25T11:21:11;1.80;;;1.40;;
10260;SDS011;5175;42.606;23.388;2023-04-25T11:23:38;1.90;;;1.20;;
10260;SDS011;5175;42.606;23.388;2023-04-25T11:26:05;2.70;;;1.40;;
10260;SDS011;5175;42.606;23.388;2023-04-25T11:28:32;2.07;;;1.60;;
10260;SDS011;5175;42.606;23.388;2023-04-25T11:30:59;2.40;;;1.87;;
10260;SDS011;5175;42.606;23.388;2023-04-25T11:33:27;2.50;;;2.28;;
10260;SDS011;5175;42.606;23.388;2023-04-25T11:35:54;3.50;;;2.10;;
10260;SDS011;5175;42.606;23.388;2023-04-25T11:38:22;3.90;;;2.10;;
10260;SDS011;5175;42.606;23.388;2023-04-25T11:40:49;4.07;;;2.25;;
10260;SDS011;5175;42.606;23.388;2023-04-25T11:43:17;3.05;;;2.05;;
10260;SDS011;5175;42.606;23.388;2023-04-25T11:45:46;2.50;;;2.10;;
10260;SDS011;5175;42.606;23.388;2023-04-25T11:48:14;2.25;;;2.05;;
10260;SDS011;5175;42.606;23.388;2023-04-25T11:50:42;2.50;;;2.00;;
10260;SDS011;5175;42.606;23.388;2023-04-25T11:53:09;3.07;;;2.10;;
10260;SDS011;5175;42.606;23.388;2023-04-25T11:55:37;3.17;;;2.20;;
10260;SDS011;5175;42.606;23.388;2023-04-25T11:58:05;3.20;;;2.20;;
10260;SDS011;5175;42.606;23.388;2023-04-25T12:00:32;4.73;;;2.30;;
10260;SDS011;5175;42.606;23.388;2023-04-25T12:02:59;3.93;;;2.30;;
10260;SDS011;5175;42.606;23.388;2023-04-25T12:05:28;2.60;;;1.73;;
10260;SDS011;5175;42.606;23.388;2023-04-25T12:07:59;3.20;;;1.30;;
10260;SDS011;5175;42.606;23.388;2023-04-25T12:10:37;2.83;;;1.30;;
10260;SDS011;5175;42.606;23.388;2023-04-25T12:13:17;1.90;;;1.57;;
10260;SDS011;5175;42.606;23.388;2023-04-25T12:15:45;3.40;;;1.57;;
10260;SDS011;5175;42.606;23.388;2023-04-25T12:18:12;1.60;;;1.50;;
10260;SDS011;5175;42.606;23.388;2023-04-25T12:20:41;2.23;;;1.47;;
10260;SDS011;5175;42.606;23.388;2023-04-25T12:23:09;1.47;;;1.37;;
10260;SDS011;5175;42.606;23.388;2023-04-25T12:25:38;1.50;;;1.30;;
10260;SDS011;5175;42.606;23.388;2023-04-25T12:28:10;2.00;;;1.57;;
10260;SDS011;5175;42.606;23.388;2023-04-25T12:30:51;5.67;;;1.73;;
10260;SDS011;5175;42.606;23.388;2023-04-25T12:33:22;3.10;;;1.60;;
10260;SDS011;5175;42.606;23.388;2023-04-25T12:35:49;2.37;;;2.17;;
10260;SDS011;5175;42.606;23.388;2023-04-25T12:38:25;3.70;;;2.60;;
10260;SDS011;5175;42.606;23.388;2023-04-25T12:40:54;5.93;;;2.77;;
10260;SDS011;5175;42.606;23.388;2023-04-25T12:43:21;3.50;;;2.10;;
10260;SDS011;5175;42.606;23.388;2023-04-25T12:45:48;1.90;;;1.70;;
10260;SDS011;5175;42.606;23.388;2023-04-25T12:48:16;2.30;;;1.70;;
10260;SDS011;5175;42.606;23.388;2023-04-25T12:50:43;1.47;;;1.33;;
10260;SDS011;5175;42.606;23.388;2023-04-25T12:53:12;2.40;;;1.60;;
10260;SDS011;5175;42.606;23.388;2023-04-25T12:55:41;1.70;;;1.50;;
10260;SDS011;5175;42.606;23.388;2023-04-25T12:58:07;1.43;;;1.27;;
10260;SDS011;5175;42.606;23.388;2023-04-25T13:00:35;2.90;;;1.33;;
10260;SDS011;5175;42.606;23.388;2023-04-25T13:03:02;1.77;;;1.30;;
10260;SDS011;5175;42.606;23.388;2023-04-25T13:05:29;1.50;;;1.10;;
10260;SDS011;5175;42.606;23.388;2023-04-25T13:07:56;1.27;;;1.13;;
10260;SDS011;5175;42.606;23.388;2023-04-25T13:10:24;1.50;;;1.07;;
10260;SDS011;5175;42.606;23.388;2023-04-25T13:12:52;3.40;;;1.37;;
10260;SDS011;5175;42.606;23.388;2023-04-25T13:15:19;1.30;;;1.13;;
10260;SDS011;5175;42.606;23.388;2023-04-25T13:17:47;1.38;;;1.00;;
10260;SDS011;5175;42.606;23.388;2023-04-25T13:20:13;1.77;;;1.10;;
10260;SDS011;5175;42.606;23.388;2023-04-25T13:22:41;1.50;;;1.10;;
10260;SDS011;5175;42.606;23.388;2023-04-25T13:25:10;1.58;;;1.10;;
10260;SDS011;5175;42.606;23.388;2023-04-25T13:27:37;1.55;;;1.33;;
10260;SDS011;5175;42.606;23.388;2023-04-25T13:30:08;1.30;;;1.10;;
10260;SDS011;5175;42.606;23.388;2023-04-25T13:32:36;3.25;;;1.52;;
10260;SDS011;5175;42.606;23.388;2023-04-25T13:35:04;2.47;;;1.37;;
10260;SDS011;5175;42.606;23.388;2023-04-25T13:37:32;2.23;;;1.33;;
10260;SDS011;5175;42.606;23.388;2023-04-25T13:39:59;1.47;;;1.33;;
10260;SDS011;5175;42.606;23.388;2023-04-25T13:42:27;4.90;;;2.20;;
10260;SDS011;5175;42.606;23.388;2023-04-25T13:44:54;2.23;;;2.00;;
10260;SDS011;5175;42.606;23.388;2023-04-25T13:47:23;2.40;;;1.70;;
10260;SDS011;5175;42.606;23.388;2023-04-25T13:49:50;4.63;;;1.57;;
10260;SDS011;5175;42.606;23.388;2023-04-25T13:52:17;2.13;;;1.53;;
10260;SDS011;5175;42.606;23.388;2023-04-25T13:54:44;1.87;;;1.53;;
10260;SDS011;5175;42.606;23.388;2023-04-25T13:57:11;1.60;;;1.33;;
10260;SDS011;5175;42.606;23.388;2023-04-25T13:59:38;2.13;;;1.53;;
10260;SDS011;5175;42.606;23.388;2023-04-25T14:02:05;1.70;;;1.60;;
10260;SDS011;5175;42.606;23.388;2023-04-25T14:04:34;1.97;;;1.77;;
10260;SDS011;5175;42.606;23.388;2023-04-25T14:07:01;1.90;;;1.60;;
10260;SDS011;5175;42.606;23.388;2023-04-25T14:09:29;7.20;;;2.10;;
10260;SDS011;5175;42.606;23.388;2023-04-25T14:11:57;1.83;;;1.70;;
10260;SDS011;5175;42.606;23.388;2023-04-25T14:14:24;2.10;;;1.90;;
10260;SDS011;5175;42.606;23.388;2023-04-25T14:16:50;2.00;;;1.73;;
10260;SDS011;5175;42.606;23.388;2023-04-25T14:19:19;1.97;;;1.70;;
10260;SDS011;5175;42.606;23.388;2023-04-25T14:21:47;3.10;;;2.00;;
10260;SDS011;5175;42.606;23.388;2023-04-25T14:24:14;3.23;;;2.17;;
10260;SDS011;5175;42.606;23.388;2023-04-25T14:26:41;3.30;;;2.20;;
10260;SDS011;5175;42.606;23.388;2023-04-25T14:29:08;1.90;;;1.70;;
10260;SDS011;5175;42.606;23.388;2023-04-25T14:31:37;2.43;;;1.90;;
10260;SDS011;5175;42.606;23.388;2023-04-25T14:34:04;2.10;;;1.90;;
10260;SDS011;5175;42.606;23.388;2023-04-25T14:36:31;3.87;;;1.80;;
10260;SDS011;5175;42.606;23.388;2023-04-25T14:39:00;1.63;;;1.53;;
10260;SDS011;5175;42.606;23.388;2023-04-25T14:41:27;1.57;;;1.30;;
10260;SDS011;5175;42.606;23.388;2023-04-25T14:43:54;1.80;;;1.50;;
10260;SDS011;5175;42.606;23.388;2023-04-25T14:46:22;1.90;;;1.50;;